Time;durP1;ratioP1;P1;durP2;ratioP2;P2;SDS_P1;SDS_P2;PMS_P1;PMS_P2;Temp;Humidity;BMP_temperature;BMP_pressure;BME280_temperature;BME280_humidity;BME280_pressure;Samples;Min_cycle;Max_cycle;Signal;HPM_P1;HPM_P2
2024/04/06 00:00:18;;;;;;;3.35;2.50;;;11.30;99.90;;;;;;5015026;28;20125;-79
2024/04/06 00:02:45;;;;;;;8.38;2.85;;;11.30;99.90;;;;;;4998412;28;20073;-79
2024/04/06 00:05:12;;;;;;;3.80;1.88;;;11.40;99.90;;;;;;5014080;28;20050;-79
2024/04/06 00:07:38;;;;;;;3.58;2.53;;;11.40;99.90;;;;;;5013475;28;20531;-78
2024/04/06 00:10:05;;;;;;;5.15;2.40;;;11.40;99.90;;;;;;5013382;28;20042;-79
2024/04/06 00:12:31;;;;;;;6.13;1.95;;;11.40;99.90;;;;;;4997517;28;20050;-79
2024/04/06 00:14:57;;;;;;;5.43;3.15;;;11.50;99.90;;;;;;4998494;28;20044;-79
2024/04/06 00:17:23;;;;;;;4.53;2.97;;;11.40;99.90;;;;;;4998351;28;20038;-79
2024/04/06 00:19:49;;;;;;;5.82;2.72;;;11.30;99.90;;;;;;4998583;28;20041;-79
2024/04/06 00:22:15;;;;;;;6.50;3.30;;;11.50;99.90;;;;;;4998252;28;20041;-79
2024/04/06 00:24:41;;;;;;;2.00;1.85;;;11.60;99.90;;;;;;5014388;28;20056;-79
2024/04/06 00:27:08;;;;;;;4.05;2.63;;;11.30;99.90;;;;;;5014670;28;20045;-79
2024/04/06 00:29:34;;;;;;;9.70;3.13;;;11.30;99.90;;;;;;5014377;28;20430;-79
2024/04/06 00:32:00;;;;;;;6.32;2.35;;;11.30;99.90;;;;;;4998426;28;20050;-79
2024/04/06 00:34:26;;;;;;;10.45;2.83;;;11.20;99.90;;;;;;5014196;28;20042;-79
2024/04/06 00:36:54;;;;;;;9.05;3.80;;;11.20;99.90;;;;;;5014284;28;20104;-79
2024/04/06 00:39:20;;;;;;;9.93;3.00;;;11.10;99.90;;;;;;4998259;28;20530;-79
2024/04/06 00:41:47;;;;;;;4.13;2.55;;;11.10;99.90;;;;;;5013983;28;20407;-79
2024/04/06 00:44:14;;;;;;;8.27;5.28;;;11.10;99.90;;;;;;4981679;28;20045;-79
2024/04/06 00:46:40;;;;;;;7.53;3.60;;;11.10;99.90;;;;;;5013905;28;20042;-79
2024/04/06 00:49:08;;;;;;;6.40;3.60;;;11.30;99.90;;;;;;4997866;28;20053;-79
2024/04/06 00:51:34;;;;;;;5.88;4.38;;;11.10;99.90;;;;;;5013964;28;20076;-79
2024/04/06 00:54:00;;;;;;;8.20;3.53;;;11.10;99.90;;;;;;5013822;28;20046;-79
2024/04/06 00:56:26;;;;;;;10.40;3.30;;;11.20;99.90;;;;;;4997420;28;20057;-79
2024/04/06 00:58:52;;;;;;;5.20;2.65;;;11.20;99.90;;;;;;4997635;28;20038;-79
2024/04/06 01:01:18;;;;;;;8.27;3.63;;;11.20;99.90;;;;;;5013479;28;20066;-78
2024/04/06 01:03:44;;;;;;;4.57;2.13;;;11.30;99.90;;;;;;5013604;28;20034;-79
2024/04/06 01:06:10;;;;;;;7.55;3.67;;;11.30;99.90;;;;;;5013688;28;20072;-79
2024/04/06 01:08:37;;;;;;;4.70;2.60;;;11.40;99.90;;;;;;5013397;28;20054;-79
2024/04/06 01:11:04;;;;;;;6.10;2.65;;;11.50;99.90;;;;;;5013754;28;20041;-79
2024/04/06 01:13:30;;;;;;;6.97;3.08;;;11.50;99.90;;;;;;5013638;28;20060;-79
2024/04/06 01:15:56;;;;;;;9.18;3.42;;;11.50;99.90;;;;;;4997471;28;20064;-78
2024/04/06 01:18:22;;;;;;;4.65;3.05;;;11.50;99.90;;;;;;5013470;28;20046;-79
2024/04/06 01:20:51;;;;;;;7.22;3.38;;;11.60;99.90;;;;;;4997029;28;20526;-79
2024/04/06 01:23:17;;;;;;;2.60;1.85;;;11.60;99.90;;;;;;5013483;28;20503;-78
2024/04/06 01:25:43;;;;;;;6.72;2.72;;;11.70;99.90;;;;;;5013147;28;20077;-79
2024/04/06 01:28:09;;;;;;;5.55;3.05;;;11.70;99.90;;;;;;5013479;28;20057;-79
2024/04/06 01:30:37;;;;;;;4.07;3.53;;;11.80;99.90;;;;;;4980918;28;20050;-78
2024/04/06 01:33:03;;;;;;;6.93;1.88;;;11.90;99.90;;;;;;4997198;28;20053;-78
2024/04/06 01:35:30;;;;;;;7.65;3.28;;;11.90;99.90;;;;;;5013171;28;20042;-79
2024/04/06 01:37:56;;;;;;;8.45;3.53;;;12.00;99.90;;;;;;5013066;28;20042;-78
2024/04/06 01:40:22;;;;;;;11.40;3.13;;;12.00;99.90;;;;;;5012989;28;20046;-78
2024/04/06 01:42:48;;;;;;;5.05;2.00;;;12.00;99.90;;;;;;5012837;28;20052;-79
2024/04/06 01:45:14;;;;;;;7.90;2.80;;;11.90;99.90;;;;;;5013123;28;20042;-78
2024/04/06 01:47:40;;;;;;;4.78;2.50;;;11.90;99.90;;;;;;5012839;28;20380;-79
2024/04/06 01:50:08;;;;;;;7.13;3.45;;;11.90;99.90;;;;;;5012839;28;20050;-79
2024/04/06 01:52:34;;;;;;;5.63;1.80;;;11.90;99.90;;;;;;5012743;28;20038;-79
2024/04/06 01:55:01;;;;;;;5.05;2.72;;;11.90;99.90;;;;;;4980604;28;20041;-78
2024/04/06 01:57:27;;;;;;;8.93;3.97;;;12.00;99.90;;;;;;5012873;28;20080;-78
2024/04/06 01:59:53;;;;;;;5.80;2.35;;;12.00;99.90;;;;;;5012687;28;20049;-79
2024/04/06 02:02:19;;;;;;;3.72;1.67;;;12.00;99.90;;;;;;4980293;28;20399;-79
2024/04/06 02:04:48;;;;;;;6.70;3.58;;;12.00;99.90;;;;;;4996347;28;20033;-78
2024/04/06 02:07:14;;;;;;;5.28;3.17;;;11.90;99.90;;;;;;5012940;28;20399;-78
2024/04/06 02:09:40;;;;;;;7.47;2.70;;;11.90;99.90;;;;;;4996338;28;20060;-78
2024/04/06 02:12:07;;;;;;;5.35;3.75;;;11.80;99.90;;;;;;5012089;28;20488;-78
2024/04/06 02:14:33;;;;;;;2.78;2.28;;;11.80;99.90;;;;;;5012501;28;20054;-79
2024/04/06 02:16:59;;;;;;;11.40;2.80;;;11.70;99.90;;;;;;5012452;28;20045;-78
2024/04/06 02:19:25;;;;;;;4.07;2.90;;;11.70;99.90;;;;;;4979953;28;20049;-78
2024/04/06 02:21:51;;;;;;;9.73;3.42;;;11.70;99.90;;;;;;5012334;28;20088;-79
2024/04/06 02:24:17;;;;;;;9.40;3.65;;;11.70;99.90;;;;;;4979821;28;20077;-78
2024/04/06 02:26:43;;;;;;;8.10;3.60;;;11.70;99.90;;;;;;5011909;28;20502;-78
2024/04/06 02:29:09;;;;;;;6.97;3.33;;;11.70;99.90;;;;;;4995942;28;20455;-78
2024/04/06 02:31:38;;;;;;;6.32;4.28;;;11.70;99.90;;;;;;5012439;28;20041;-78
2024/04/06 02:34:04;;;;;;;9.32;3.50;;;11.70;99.90;;;;;;5012040;28;20046;-78
2024/04/06 02:36:31;;;;;;;7.38;3.45;;;11.70;99.90;;;;;;5012038;28;20042;-78
2024/04/06 02:38:57;;;;;;;6.97;3.47;;;11.80;99.90;;;;;;5012174;28;20038;-79
2024/04/06 02:41:23;;;;;;;6.35;3.78;;;11.80;99.90;;;;;;5012099;28;20048;-78
2024/04/06 02:43:50;;;;;;;8.43;3.97;;;11.90;99.90;;;;;;4979704;28;20053;-78
2024/04/06 02:46:16;;;;;;;8.32;3.60;;;11.90;99.90;;;;;;5012053;28;20049;-79
2024/04/06 02:48:42;;;;;;;10.40;3.92;;;12.00;99.90;;;;;;4979060;28;20050;-79
2024/04/06 02:51:09;;;;;;;9.82;3.17;;;12.10;99.90;;;;;;5011927;28;20037;-78
2024/04/06 02:53:35;;;;;;;5.85;3.70;;;12.10;99.90;;;;;;4995455;28;20042;-79
2024/04/06 02:56:01;;;;;;;8.20;3.08;;;12.20;99.90;;;;;;4995460;28;20435;-78
2024/04/06 02:58:27;;;;;;;10.68;3.88;;;12.20;99.90;;;;;;5011803;28;20120;-78
2024/04/06 03:00:52;;;;;;;7.07;4.03;;;12.30;99.90;;;;;;4993344;28;20144;-78
2024/04/06 03:03:18;;;;;;;8.32;4.10;;;12.30;99.90;;;;;;5011052;28;20046;-78
2024/04/06 03:05:45;;;;;;;6.07;4.03;;;12.40;99.90;;;;;;4993711;28;20046;-78
2024/04/06 03:08:11;;;;;;;7.93;3.88;;;12.40;99.90;;;;;;4979173;28;20057;-79
2024/04/06 03:10:37;;;;;;;6.35;3.95;;;12.40;99.90;;;;;;4995401;28;20129;-79
2024/04/06 03:13:04;;;;;;;6.10;4.15;;;12.40;99.90;;;;;;4995030;28;20133;-78
2024/04/06 03:15:30;;;;;;;6.85;4.13;;;12.40;99.90;;;;;;4979254;28;20085;-78
2024/04/06 03:17:56;;;;;;;11.38;4.80;;;12.40;99.90;;;;;;4994850;28;20053;-78
2024/04/06 03:20:22;;;;;;;6.43;4.13;;;12.40;99.90;;;;;;4995171;28;20446;-79
2024/04/06 03:23:02;;;;;;;5.85;4.18;;;12.40;99.90;;;;;;4978753;28;20140;-79
2024/04/06 03:25:29;;;;;;;6.55;4.35;;;12.40;99.90;;;;;;4979047;28;20046;-79
2024/04/06 03:27:56;;;;;;;7.57;6.07;;;12.40;99.90;;;;;;4994824;28;20045;-78
2024/04/06 03:30:23;;;;;;;9.45;6.10;;;12.30;99.90;;;;;;5011468;28;20415;-81
2024/04/06 03:32:49;;;;;;;6.70;6.00;;;12.30;99.90;;;;;;5011223;28;20092;-78
2024/04/06 03:35:16;;;;;;;8.68;5.93;;;12.30;99.90;;;;;;4962809;28;20522;-79
2024/04/06 03:37:42;;;;;;;7.07;5.75;;;12.30;99.90;;;;;;4995009;28;20045;-79
2024/04/06 03:40:09;;;;;;;8.63;5.30;;;12.20;99.90;;;;;;5011149;28;20042;-79
2024/04/06 03:42:37;;;;;;;6.90;6.10;;;12.20;99.90;;;;;;5011589;28;20472;-78
2024/04/06 03:45:05;;;;;;;8.65;5.03;;;12.20;99.90;;;;;;4994911;28;20049;-79
2024/04/06 03:47:31;;;;;;;12.10;7.15;;;12.20;99.90;;;;;;4995262;28;20411;-78
2024/04/06 03:49:58;;;;;;;6.07;5.18;;;12.20;99.90;;;;;;5011158;28;20042;-78
2024/04/06 03:52:24;;;;;;;12.60;7.65;;;12.20;99.90;;;;;;4994968;28;20046;-78
2024/04/06 03:54:50;;;;;;;8.10;6.60;;;12.10;99.90;;;;;;4994709;28;20056;-78
2024/04/06 03:57:16;;;;;;;5.80;4.50;;;12.10;99.90;;;;;;5011314;28;20053;-78
2024/04/06 03:59:43;;;;;;;8.50;6.13;;;12.10;99.90;;;;;;5011182;28;20045;-78
2024/04/06 04:02:09;;;;;;;10.43;8.02;;;12.10;99.90;;;;;;4978592;28;20926;-78
2024/04/06 04:04:35;;;;;;;12.20;8.10;;;12.10;99.90;;;;;;4995143;28;20057;-79
2024/04/06 04:07:01;;;;;;;7.13;5.40;;;12.20;99.90;;;;;;4994649;28;20395;-78
2024/04/06 04:09:27;;;;;;;11.25;6.05;;;12.20;99.90;;;;;;4994856;28;20124;-79
2024/04/06 04:11:53;;;;;;;9.23;7.63;;;12.30;99.90;;;;;;5010859;28;20053;-79
2024/04/06 04:14:19;;;;;;;7.57;6.88;;;12.30;99.90;;;;;;5010982;28;20037;-79
2024/04/06 04:16:46;;;;;;;9.90;8.75;;;12.40;99.90;;;;;;4994731;28;20038;-79
2024/04/06 04:19:12;;;;;;;8.65;7.72;;;12.40;99.90;;;;;;5010627;28;20046;-79
2024/04/06 04:21:38;;;;;;;10.57;8.18;;;12.50;99.90;;;;;;4994519;28;20053;-78
2024/04/06 04:24:04;;;;;;;8.98;7.65;;;12.50;99.90;;;;;;4994243;28;20041;-79
2024/04/06 04:26:30;;;;;;;7.05;6.30;;;12.50;99.90;;;;;;4978296;28;20046;-78
2024/04/06 04:28:56;;;;;;;11.65;7.68;;;12.50;99.90;;;;;;5010526;28;20053;-78
2024/04/06 04:31:22;;;;;;;9.48;7.13;;;12.50;99.90;;;;;;4978335;28;20057;-78
2024/04/06 04:33:48;;;;;;;9.82;7.70;;;12.50;99.90;;;;;;5010738;28;20046;-78
2024/04/06 04:36:14;;;;;;;10.63;8.85;;;12.50;99.90;;;;;;5012661;28;20038;-78
2024/04/06 04:38:40;;;;;;;10.82;6.95;;;12.60;99.90;;;;;;4982015;28;20467;-79
2024/04/06 04:41:07;;;;;;;9.25;7.22;;;12.60;99.90;;;;;;4997978;28;20045;-79
2024/04/06 04:43:33;;;;;;;12.68;8.18;;;12.60;99.90;;;;;;4997888;28;20096;-79
2024/04/06 04:46:00;;;;;;;8.27;7.03;;;12.70;99.90;;;;;;4997637;28;20404;-79
2024/04/06 04:48:33;;;;;;;14.95;8.48;;;12.70;99.90;;;;;;4997750;28;20065;-78
2024/04/06 04:50:59;;;;;;;14.27;9.60;;;12.70;99.90;;;;;;4997390;28;20068;-78
2024/04/06 04:53:25;;;;;;;13.23;7.95;;;12.80;99.90;;;;;;4981485;28;20050;-79
2024/04/06 04:55:51;;;;;;;5.45;4.95;;;12.80;99.90;;;;;;4997382;28;20058;-78
2024/04/06 04:58:17;;;;;;;14.48;7.65;;;12.90;99.90;;;;;;5013653;28;20041;-79
2024/04/06 05:00:43;;;;;;;7.32;6.55;;;12.90;99.90;;;;;;5009902;28;20065;-80
2024/04/06 05:03:09;;;;;;;7.22;6.50;;;12.90;99.90;;;;;;4981192;28;20042;-78
2024/04/06 05:05:35;;;;;;;9.20;5.30;;;13.00;99.90;;;;;;5013393;28;20033;-79
2024/04/06 05:08:01;;;;;;;10.85;8.52;;;13.00;99.90;;;;;;4997245;28;20054;-78
2024/04/06 05:10:27;;;;;;;7.88;6.65;;;13.00;99.90;;;;;;4997438;28;20037;-79
2024/04/06 05:12:53;;;;;;;7.97;7.07;;;13.10;99.90;;;;;;4981305;28;20077;-78
2024/04/06 05:15:19;;;;;;;8.05;6.65;;;13.10;99.90;;;;;;5013438;28;20061;-78
2024/04/06 05:17:45;;;;;;;9.90;7.68;;;13.10;99.90;;;;;;4981091;28;20483;-79
2024/04/06 05:20:11;;;;;;;17.73;9.02;;;13.20;99.90;;;;;;4997212;28;20442;-78
2024/04/06 05:22:37;;;;;;;2.72;2.17;;;13.20;99.90;;;;;;5013525;28;20423;-78
2024/04/06 05:25:03;;;;;;;10.50;6.97;;;13.20;99.90;;;;;;5013345;28;20038;-79
2024/04/06 05:27:29;;;;;;;7.90;6.70;;;13.20;99.90;;;;;;4980974;28;20044;-78
2024/04/06 05:29:55;;;;;;;7.32;6.22;;;13.20;99.90;;;;;;5013280;28;20053;-79
2024/04/06 05:32:21;;;;;;;7.60;6.57;;;13.20;99.90;;;;;;4996786;28;20077;-79
2024/04/06 05:34:47;;;;;;;7.97;6.45;;;13.20;99.90;;;;;;4996925;28;20042;-78
2024/04/06 05:37:13;;;;;;;7.35;6.10;;;13.30;99.90;;;;;;4980368;28;20046;-79
2024/04/06 05:39:39;;;;;;;9.27;7.88;;;13.40;99.90;;;;;;4996888;28;20542;-78
2024/04/06 05:42:05;;;;;;;7.30;5.25;;;13.40;99.90;;;;;;4996504;28;20376;-78
2024/04/06 05:44:31;;;;;;;4.40;4.00;;;13.50;99.90;;;;;;4996891;28;20089;-78
2024/04/06 05:46:57;;;;;;;9.68;6.50;;;13.60;99.90;;;;;;5011950;28;20487;-79
2024/04/06 05:49:23;;;;;;;8.48;6.28;;;13.60;99.90;;;;;;4980644;28;20033;-79
2024/04/06 05:51:49;;;;;;;7.25;6.55;;;13.60;99.90;;;;;;4996666;28;20042;-78
2024/04/06 05:54:15;;;;;;;7.20;6.53;;;13.80;99.90;;;;;;4996367;28;20053;-79
2024/04/06 05:56:41;;;;;;;5.47;4.25;;;13.70;99.90;;;;;;4996651;28;20038;-78
2024/04/06 05:59:07;;;;;;;7.00;6.28;;;13.80;99.90;;;;;;4980100;28;20041;-78
2024/04/06 06:01:33;;;;;;;6.60;5.93;;;13.80;99.90;;;;;;4971989;28;20046;-78
2024/04/06 06:03:59;;;;;;;5.43;4.85;;;13.80;99.90;;;;;;5005755;28;20049;-78
2024/04/06 06:06:25;;;;;;;5.45;4.60;;;13.80;99.90;;;;;;5009093;28;20046;-78
2024/04/06 06:08:53;;;;;;;6.40;5.80;;;13.90;99.90;;;;;;5002164;28;20050;-79
2024/04/06 06:11:19;;;;;;;6.80;5.53;;;13.90;99.90;;;;;;5026105;28;20053;-79
2024/04/06 06:13:44;;;;;;;4.75;3.90;;;13.90;99.90;;;;;;4995998;28;20069;-78
2024/04/06 06:16:10;;;;;;;6.30;4.72;;;14.00;99.90;;;;;;5012089;28;20100;-78
2024/04/06 06:18:36;;;;;;;5.05;3.25;;;14.00;99.90;;;;;;5012349;28;20042;-79
2024/04/06 06:21:06;;;;;;;7.60;5.18;;;14.10;99.90;;;;;;4996127;28;20503;-78
2024/04/06 06:23:32;;;;;;;6.85;4.00;;;14.20;99.90;;;;;;4979786;28;20049;-78
2024/04/06 06:25:58;;;;;;;3.72;3.42;;;14.30;99.90;;;;;;4979870;28;20103;-79
2024/04/06 06:28:24;;;;;;;6.45;3.90;;;14.30;99.90;;;;;;4995862;28;20396;-78
2024/04/06 06:30:50;;;;;;;4.35;3.13;;;14.30;99.90;;;;;;5012147;28;20410;-79
2024/04/06 06:33:21;;;;;;;5.22;4.72;;;14.40;99.90;;;;;;5012229;28;20038;-78
2024/04/06 06:35:53;;;;;;;5.28;4.57;;;14.40;99.90;;;;;;4980192;28;20077;-78
2024/04/06 06:38:19;;;;;;;4.45;3.45;;;14.40;99.90;;;;;;4979318;28;20381;-79
2024/04/06 06:40:49;;;;;;;7.85;4.38;;;14.50;99.90;;;;;;4979530;28;20145;-79
2024/04/06 06:43:15;;;;;;;4.55;3.55;;;14.60;99.90;;;;;;4979193;28;20495;-78
2024/04/06 06:45:41;;;;;;;3.95;3.55;;;14.70;99.90;;;;;;5011952;28;20038;-78
2024/04/06 06:48:07;;;;;;;3.78;3.25;;;14.70;99.90;;;;;;5011983;28;20042;-79
2024/04/06 06:50:34;;;;;;;4.53;3.85;;;14.90;99.90;;;;;;5011538;28;20498;-79
2024/04/06 06:53:00;;;;;;;4.72;2.50;;;15.10;99.90;;;;;;4979579;28;20046;-79
2024/04/06 06:55:26;;;;;;;5.97;2.83;;;15.40;99.90;;;;;;5011638;28;20136;-79
2024/04/06 06:57:53;;;;;;;4.88;3.28;;;15.90;99.90;;;;;;4978824;28;20042;-78
2024/04/06 07:00:19;;;;;;;2.67;1.98;;;16.40;99.90;;;;;;5011453;28;20037;-79
2024/04/06 07:02:45;;;;;;;6.07;2.05;;;16.90;99.90;;;;;;4979374;28;20046;-79
2024/04/06 07:05:12;;;;;;;2.88;2.13;;;17.30;99.90;;;;;;5011815;28;20479;-79
2024/04/06 07:07:38;;;;;;;1.98;1.73;;;17.40;99.90;;;;;;4995854;28;20395;-79
2024/04/06 07:10:04;;;;;;;2.20;1.98;;;17.30;99.90;;;;;;4995299;28;20140;-78
2024/04/06 07:12:34;;;;;;;5.28;1.95;;;17.10;99.90;;;;;;5011578;28;20046;-78
2024/04/06 07:15:00;;;;;;;2.65;2.45;;;17.20;99.90;;;;;;4979133;28;20046;-78
2024/04/06 07:17:26;;;;;;;2.72;1.92;;;17.20;99.90;;;;;;5011127;28;20053;-78
2024/04/06 07:19:51;;;;;;;3.58;3.10;;;17.30;99.90;;;;;;5011393;28;20038;-79
2024/04/06 07:22:18;;;;;;;2.25;2.00;;;17.40;99.90;;;;;;5011140;28;20041;-78
2024/04/06 07:24:44;;;;;;;3.00;2.08;;;17.50;99.90;;;;;;4979154;28;20045;-78
2024/04/06 07:27:10;;;;;;;2.25;2.03;;;17.60;99.90;;;;;;5011582;28;20124;-79
2024/04/06 07:29:36;;;;;;;4.07;2.47;;;17.60;99.90;;;;;;5011319;28;20073;-79
2024/04/06 07:32:02;;;;;;;3.75;2.92;;;17.60;99.90;;;;;;5011345;28;20038;-79
2024/04/06 07:34:28;;;;;;;1.92;1.65;;;17.70;99.90;;;;;;5011058;28;20121;-79
2024/04/06 07:36:54;;;;;;;2.53;2.30;;;17.80;99.90;;;;;;5011317;28;20081;-79
2024/04/06 07:39:20;;;;;;;4.25;2.17;;;18.00;99.90;;;;;;4994741;28;20113;-79
2024/04/06 07:41:46;;;;;;;4.15;2.40;;;18.30;99.90;;;;;;5011109;28;20045;-79
2024/04/06 07:44:12;;;;;;;3.90;2.58;;;18.70;99.90;;;;;;4994811;28;20080;-78
2024/04/06 07:46:38;;;;;;;2.45;2.20;;;18.90;99.90;;;;;;5011092;28;20484;-78
2024/04/06 07:49:04;;;;;;;4.05;1.98;;;19.10;99.90;;;;;;5011119;28;20144;-79
2024/04/06 07:51:30;;;;;;;3.40;2.92;;;19.00;99.90;;;;;;4994509;28;20049;-79
2024/04/06 07:53:56;;;;;;;5.00;2.58;;;19.10;99.90;;;;;;5011371;28;20045;-80
2024/04/06 07:56:22;;;;;;;4.07;2.15;;;19.30;99.90;;;;;;5005553;28;20120;-79
2024/04/06 07:58:48;;;;;;;2.25;1.70;;;19.20;99.90;;;;;;5011976;28;20610;-77
2024/04/06 08:01:14;;;;;;;4.18;2.33;;;19.20;99.90;;;;;;5012026;28;20038;-78
2024/04/06 08:03:40;;;;;;;3.50;2.10;;;19.20;99.90;;;;;;5011939;28;20045;-79
2024/04/06 08:06:06;;;;;;;4.13;2.40;;;19.40;99.90;;;;;;4979440;28;20050;-77
2024/04/06 08:08:34;;;;;;;2.60;2.00;;;19.80;99.90;;;;;;5011609;28;20443;-77
2024/04/06 08:11:01;;;;;;;2.30;2.10;;;20.50;99.90;;;;;;5013686;28;20371;-78
2024/04/06 08:13:27;;;;;;;2.75;1.70;;;21.20;98.90;;;;;;5015132;28;20038;-77
2024/04/06 08:15:53;;;;;;;4.45;2.15;;;21.40;97.40;;;;;;5015055;28;20402;-76
2024/04/06 08:18:19;;;;;;;2.38;2.17;;;21.30;97.70;;;;;;4998672;28;20124;-77
2024/04/06 08:20:47;;;;;;;2.10;1.83;;;21.20;96.60;;;;;;5015342;28;20418;-77
2024/04/06 08:23:16;;;;;;;3.10;2.30;;;21.10;96.90;;;;;;4982826;28;20060;-79
2024/04/06 08:25:42;;;;;;;5.07;2.78;;;20.90;97.10;;;;;;4999461;28;20030;-79
2024/04/06 08:28:08;;;;;;;2.35;1.88;;;21.30;97.10;;;;;;4999262;28;20045;-79
2024/04/06 08:30:34;;;;;;;2.53;2.00;;;21.90;96.70;;;;;;4998760;28;20050;-79
2024/04/06 08:33:00;;;;;;;2.40;2.17;;;22.50;95.20;;;;;;5014676;28;20057;-79
2024/04/06 08:35:26;;;;;;;3.88;1.90;;;22.70;94.30;;;;;;5014195;28;20053;-79
2024/04/06 08:37:52;;;;;;;2.05;1.85;;;22.50;93.80;;;;;;4997990;28;20050;-79
2024/04/06 08:40:19;;;;;;;4.47;2.00;;;22.20;93.90;;;;;;4997709;28;20042;-78
2024/04/06 08:42:45;;;;;;;4.90;2.50;;;21.90;94.10;;;;;;4997907;28;20054;-78
2024/04/06 08:45:13;;;;;;;3.30;2.42;;;21.90;94.10;;;;;;4981980;28;20054;-78
2024/04/06 08:47:40;;;;;;;3.25;2.25;;;21.90;94.60;;;;;;4981712;28;20069;-78
2024/04/06 08:50:08;;;;;;;2.88;2.10;;;22.40;93.90;;;;;;5014177;28;20096;-78
2024/04/06 08:52:38;;;;;;;3.33;2.95;;;22.90;93.70;;;;;;5014023;28;20049;-77
2024/04/06 08:55:05;;;;;;;2.30;1.63;;;22.90;92.20;;;;;;5013973;28;20077;-79
2024/04/06 08:57:39;;;;;;;3.00;2.40;;;22.50;92.70;;;;;;5013866;28;20080;-79
2024/04/06 09:00:07;;;;;;;3.72;2.28;;;22.20;93.30;;;;;;5014015;28;20053;-79
2024/04/06 09:02:37;;;;;;;2.22;1.90;;;22.50;92.60;;;;;;5013681;28;20045;-79
2024/04/06 09:05:03;;;;;;;2.63;2.40;;;22.60;92.20;;;;;;5013988;28;20057;-80
2024/04/06 09:07:29;;;;;;;3.40;2.55;;;22.70;92.30;;;;;;5013959;28;20038;-78
2024/04/06 09:09:55;;;;;;;4.25;3.00;;;22.30;92.70;;;;;;4981383;28;20061;-78
2024/04/06 09:12:21;;;;;;;3.90;2.75;;;22.10;93.10;;;;;;5013837;28;20388;-78
2024/04/06 09:14:49;;;;;;;2.60;2.38;;;21.90;93.20;;;;;;5013867;28;20045;-78
2024/04/06 09:17:17;;;;;;;3.53;1.75;;;21.60;93.60;;;;;;5013772;28;20042;-78
2024/04/06 09:19:43;;;;;;;2.33;1.83;;;21.60;94.00;;;;;;5013690;28;20438;-78
2024/04/06 09:22:10;;;;;;;3.10;2.10;;;21.60;93.90;;;;;;5013382;28;20046;-77
2024/04/06 09:24:39;;;;;;;2.33;2.13;;;21.80;93.90;;;;;;4997097;28;20476;-78
2024/04/06 09:27:07;;;;;;;3.17;2.13;;;22.30;93.20;;;;;;5013302;28;20100;-78
2024/04/06 09:29:33;;;;;;;2.10;1.73;;;22.80;93.20;;;;;;5013399;28;20484;-78
2024/04/06 09:32:02;;;;;;;4.10;2.10;;;23.30;92.50;;;;;;5013450;28;20446;-78
2024/04/06 09:34:29;;;;;;;3.20;1.73;;;23.40;91.30;;;;;;4996952;28;20050;-78
2024/04/06 09:37:01;;;;;;;2.55;1.23;;;23.40;91.70;;;;;;5013349;28;20061;-77
2024/04/06 09:39:31;;;;;;;2.83;1.70;;;23.60;91.10;;;;;;5013089;28;20046;-77
2024/04/06 09:41:59;;;;;;;2.90;1.55;;;24.00;89.60;;;;;;5012864;28;20511;-76
2024/04/06 09:44:27;;;;;;;1.92;1.42;;;24.40;88.80;;;;;;5013328;28;20480;-77
2024/04/06 09:46:54;;;;;;;3.58;2.05;;;24.70;88.30;;;;;;5012986;28;20042;-77
2024/04/06 09:49:24;;;;;;;3.08;1.88;;;25.00;87.60;;;;;;4980747;28;20046;-77
2024/04/06 09:51:51;;;;;;;4.50;1.92;;;25.30;87.30;;;;;;4980261;28;20427;-77
2024/04/06 09:54:18;;;;;;;3.22;1.52;;;25.80;86.20;;;;;;5013007;28;20058;-77
2024/04/06 09:56:46;;;;;;;4.03;1.67;;;26.10;83.20;;;;;;5012626;28;20056;-77
2024/04/06 09:59:22;;;;;;;3.45;1.55;;;26.10;84.20;;;;;;5012671;28;20034;-77
2024/04/06 10:01:48;;;;;;;;;;;26.70;82.40;;;;;;5013398;28;20407;-77
2024/04/06 10:04:24;;;;;;;2.10;1.38;;;26.90;81.10;;;;;;5012887;28;19968;-77
2024/04/06 10:06:53;;;;;;;1.90;1.60;;;26.80;79.80;;;;;;4996306;28;20042;-77
2024/04/06 10:09:19;;;;;;;1.85;1.67;;;26.50;80.70;;;;;;4996256;28;20108;-78
2024/04/06 10:11:45;;;;;;;1.52;1.30;;;26.30;81.40;;;;;;4996196;28;20496;-77
2024/04/06 10:14:11;;;;;;;3.92;1.85;;;25.80;82.30;;;;;;4996388;28;20057;-77
2024/04/06 10:16:41;;;;;;;2.15;1.60;;;25.20;82.40;;;;;;5012483;28;20046;-77
2024/04/06 10:19:08;;;;;;;2.50;1.85;;;24.60;83.70;;;;;;5012400;28;20046;-77
2024/04/06 10:21:37;;;;;;;3.72;1.88;;;24.30;84.40;;;;;;4996099;28;20041;-77
2024/04/06 10:24:09;;;;;;;3.08;2.00;;;24.50;84.30;;;;;;5012562;28;20526;-77
2024/04/06 10:26:44;;;;;;;3.55;1.80;;;24.80;84.10;;;;;;5012510;28;20483;-77
2024/04/06 10:29:12;;;;;;;4.95;2.05;;;25.30;83.10;;;;;;5012252;28;20053;-77
2024/04/06 10:31:40;;;;;;;1.90;1.55;;;25.30;82.60;;;;;;5012269;28;20049;-77
2024/04/06 10:34:07;;;;;;;2.35;1.75;;;25.40;82.40;;;;;;5011649;28;20377;-77
2024/04/06 10:36:33;;;;;;;3.67;2.28;;;25.40;81.90;;;;;;4996000;28;20053;-78
2024/04/06 10:39:00;;;;;;;4.95;2.00;;;25.40;80.80;;;;;;5012063;28;20076;-77
2024/04/06 10:41:26;;;;;;;1.58;1.40;;;25.20;81.60;;;;;;4979786;28;20053;-77
2024/04/06 10:43:52;;;;;;;3.53;1.58;;;25.40;81.10;;;;;;4995813;28;20443;-78
2024/04/06 10:46:19;;;;;;;1.75;1.30;;;25.70;80.30;;;;;;4995977;28;20168;-77
2024/04/06 10:48:45;;;;;;;3.58;1.85;;;25.80;78.90;;;;;;5011762;28;20092;-79
2024/04/06 10:51:12;;;;;;;2.33;1.58;;;26.00;78.60;;;;;;4995199;28;20049;-79
2024/04/06 10:53:38;;;;;;;1.20;1.02;;;26.10;77.80;;;;;;5011874;28;20037;-79
2024/04/06 10:56:04;;;;;;;4.55;1.65;;;26.10;78.80;;;;;;4979211;28;20091;-80
2024/04/06 10:58:31;;;;;;;2.17;1.20;;;26.40;78.10;;;;;;5011716;28;20034;-79
2024/04/06 11:00:57;;;;;;;4.28;1.58;;;26.30;78.60;;;;;;5011589;28;20514;-79
2024/04/06 11:03:22;;;;;;;1.58;1.23;;;26.30;77.60;;;;;;5011854;28;20109;-79
2024/04/06 11:05:49;;;;;;;6.30;1.75;;;26.20;77.70;;;;;;4979067;28;20399;-79
2024/04/06 11:08:15;;;;;;;2.97;1.38;;;25.80;77.90;;;;;;5011826;28;20042;-79
2024/04/06 11:10:41;;;;;;;2.95;1.40;;;25.90;77.80;;;;;;4995335;28;20057;-79
2024/04/06 11:13:08;;;;;;;2.15;1.10;;;25.90;77.50;;;;;;5011431;28;20057;-79
2024/04/06 11:15:34;;;;;;;3.00;1.83;;;25.80;77.70;;;;;;5011570;28;20048;-79
2024/04/06 11:18:00;;;;;;;1.83;1.45;;;25.70;77.90;;;;;;4994963;28;20034;-79
2024/04/06 11:20:26;;;;;;;2.03;1.40;;;25.30;77.80;;;;;;4979012;28;20042;-79
2024/04/06 11:22:52;;;;;;;3.22;1.80;;;25.10;79.00;;;;;;4994896;28;20045;-79
2024/04/06 11:25:19;;;;;;;2.80;1.30;;;24.90;79.00;;;;;;4995046;28;20492;-79
2024/04/06 11:27:54;;;;;;;2.85;1.67;;;24.70;80.10;;;;;;5011490;28;20096;-79
2024/04/06 11:30:21;;;;;;;4.07;2.20;;;24.50;80.80;;;;;;5011525;28;20400;-79
2024/04/06 11:32:52;;;;;;;1.75;1.33;;;24.40;81.90;;;;;;4995044;28;20057;-78
2024/04/06 11:35:18;;;;;;;1.55;1.45;;;24.40;81.80;;;;;;5011468;28;20069;-79
2024/04/06 11:37:44;;;;;;;3.00;1.40;;;24.40;82.30;;;;;;4978721;28;20384;-79
2024/04/06 11:40:11;;;;;;;2.60;1.20;;;24.50;82.10;;;;;;5011243;28;20042;-78
2024/04/06 11:42:37;;;;;;;3.83;1.55;;;24.60;81.30;;;;;;5011312;28;20042;-78
2024/04/06 11:45:04;;;;;;;2.08;1.58;;;24.70;80.70;;;;;;4996991;28;20038;-78
2024/04/06 11:47:31;;;;;;;1.40;1.30;;;24.80;80.50;;;;;;4998959;28;20050;-79
2024/04/06 11:49:57;;;;;;;2.55;1.65;;;24.70;80.30;;;;;;5015126;28;20056;-79
2024/04/06 11:52:23;;;;;;;2.33;1.60;;;24.80;79.70;;;;;;4998880;28;20084;-79
2024/04/06 11:54:49;;;;;;;3.33;1.55;;;24.90;79.90;;;;;;5009128;28;20096;-79
2024/04/06 11:57:15;;;;;;;2.38;1.20;;;25.00;80.30;;;;;;4998375;28;20045;-79
2024/04/06 11:59:41;;;;;;;1.90;1.50;;;25.10;80.00;;;;;;5015199;28;20041;-79
2024/04/06 12:02:07;;;;;;;3.50;1.42;;;25.10;79.70;;;;;;4998525;28;20042;-78
2024/04/06 12:04:33;;;;;;;1.00;0.90;;;24.90;80.40;;;;;;5014915;28;20068;-78
2024/04/06 12:07:00;;;;;;;2.80;1.42;;;24.90;81.10;;;;;;4998413;28;20049;-79
2024/04/06 12:09:26;;;;;;;2.58;1.52;;;25.10;81.10;;;;;;5014985;28;20052;-79
2024/04/06 12:11:53;;;;;;;3.20;2.20;;;25.00;81.30;;;;;;5014714;28;20099;-79
2024/04/06 12:14:19;;;;;;;3.67;1.80;;;25.00;81.20;;;;;;5014880;28;20038;-79
2024/04/06 12:16:46;;;;;;;4.07;2.13;;;25.00;79.20;;;;;;4998600;28;20462;-79
2024/04/06 12:19:12;;;;;;;1.80;1.48;;;25.00;79.90;;;;;;4982101;28;20056;-78
2024/04/06 12:21:38;;;;;;;2.40;1.75;;;25.00;79.10;;;;;;4982287;28;20095;-79
2024/04/06 12:24:04;;;;;;;2.72;1.75;;;24.90;80.00;;;;;;4998111;28;20042;-79
2024/04/06 12:26:30;;;;;;;2.40;1.60;;;24.90;79.60;;;;;;4982022;28;20491;-79
2024/04/06 12:28:57;;;;;;;5.07;1.80;;;25.10;80.00;;;;;;4998255;28;20049;-79
2024/04/06 12:31:23;;;;;;;3.35;1.83;;;25.30;79.90;;;;;;5014539;28;20065;-77
2024/04/06 12:33:49;;;;;;;1.98;1.50;;;25.60;79.70;;;;;;4998283;28;20519;-77
2024/04/06 12:36:15;;;;;;;9.23;8.38;;;25.60;79.40;;;;;;4997980;28;20117;-77
2024/04/06 12:38:41;;;;;;;5.03;4.53;;;25.60;78.90;;;;;;5014257;28;20045;-77
2024/04/06 12:41:07;;;;;;;1.98;1.73;;;25.60;78.80;;;;;;5030554;28;20042;-78